sensor_id;sensor_type;location;lat;lon;timestamp;pressure;altitude;pressure_sealevel;temperature;humidity
28181;BME280;15464;50.988;10.318;2023-07-29T00:01:21;98306.06;;;18.73;100.00
28181;BME280;15464;50.988;10.318;2023-07-29T00:03:47;98306.91;;;18.73;100.00
28181;BME280;15464;50.988;10.318;2023-07-29T00:06:14;98298.63;;;18.75;100.00
28181;BME280;15464;50.988;10.318;2023-07-29T00:08:41;98301.94;;;18.77;100.00
28181;BME280;15464;50.988;10.318;2023-07-29T00:11:07;98302.09;;;18.69;100.00
28181;BME280;15464;50.988;10.318;2023-07-29T00:13:34;98301.09;;;18.70;100.00
28181;BME280;15464;50.988;10.318;2023-07-29T00:16:01;98299.03;;;18.72;100.00
28181;BME280;15464;50.988;10.318;2023-07-29T00:18:27;98295.72;;;18.70;100.00
28181;BME280;15464;50.988;10.318;2023-07-29T00:20:54;98296.50;;;18.64;100.00
28181;BME280;15464;50.988;10.318;2023-07-29T00:23:22;98299.00;;;18.65;100.00
28181;BME280;15464;50.988;10.318;2023-07-29T00:25:48;98294.25;;;18.67;100.00
28181;BME280;15464;50.988;10.318;2023-07-29T00:28:15;98297.75;;;18.68;100.00
28181;BME280;15464;50.988;10.318;2023-07-29T00:30:42;98290.28;;;18.63;100.00
28181;BME280;15464;50.988;10.318;2023-07-29T00:33:09;98282.66;;;18.60;100.00
28181;BME280;15464;50.988;10.318;2023-07-29T00:35:36;98280.34;;;18.57;100.00
28181;BME280;15464;50.988;10.318;2023-07-29T00:38:02;98288.13;;;18.52;100.00
28181;BME280;15464;50.988;10.318;2023-07-29T00:40:29;98283.38;;;18.47;100.00
28181;BME280;15464;50.988;10.318;2023-07-29T00:42:57;98294.09;;;18.47;100.00
28181;BME280;15464;50.988;10.318;2023-07-29T00:45:25;98292.69;;;18.51;100.00
28181;BME280;15464;50.988;10.318;2023-07-29T00:47:53;98286.09;;;18.54;100.00
28181;BME280;15464;50.988;10.318;2023-07-29T00:50:21;98287.31;;;18.51;100.00
28181;BME280;15464;50.988;10.318;2023-07-29T00:52:49;98291.66;;;18.52;100.00
28181;BME280;15464;50.988;10.318;2023-07-29T00:55:15;98294.34;;;18.52;100.00
28181;BME280;15464;50.988;10.318;2023-07-29T00:57:42;98292.69;;;18.51;100.00
28181;BME280;15464;50.988;10.318;2023-07-29T01:00:15;98292.03;;;18.49;100.00
28181;BME280;15464;50.988;10.318;2023-07-29T01:02:43;98299.06;;;18.50;100.00
28181;BME280;15464;50.988;10.318;2023-07-29T01:05:14;98294.25;;;18.39;100.00
28181;BME280;15464;50.988;10.318;2023-07-29T01:07:55;98291.81;;;18.44;100.00
28181;BME280;15464;50.988;10.318;2023-07-29T01:18:05;98273.19;;;18.36;100.00
28181;BME280;15464;50.988;10.318;2023-07-29T01:20:34;98275.88;;;18.36;100.00
28181;BME280;15464;50.988;10.318;2023-07-29T01:23:03;98280.97;;;18.31;100.00
28181;BME280;15464;50.988;10.318;2023-07-29T01:25:30;98280.97;;;18.31;100.00
28181;BME280;15464;50.988;10.318;2023-07-29T01:27:57;98286.09;;;18.26;100.00
28181;BME280;15464;50.988;10.318;2023-07-29T01:30:30;98280.31;;;18.23;100.00
28181;BME280;15464;50.988;10.318;2023-07-29T01:33:14;98276.78;;;18.22;100.00
28181;BME280;15464;50.988;10.318;2023-07-29T01:35:49;98285.47;;;18.24;100.00
28181;BME280;15464;50.988;10.318;2023-07-29T01:38:28;98279.84;;;18.19;100.00
28181;BME280;15464;50.988;10.318;2023-07-29T01:41:00;98288.56;;;18.21;100.00
28181;BME280;15464;50.988;10.318;2023-07-29T01:43:28;98285.03;;;18.21;100.00
28181;BME280;15464;50.988;10.318;2023-07-29T01:45:56;98285.44;;;18.18;100.00
28181;BME280;15464;50.988;10.318;2023-07-29T01:48:23;98289.16;;;18.17;100.00
28181;BME280;15464;50.988;10.318;2023-07-29T01:50:50;98295.34;;;18.17;100.00
28181;BME280;15464;50.988;10.318;2023-07-29T01:53:17;98291.00;;;18.16;100.00
28181;BME280;15464;50.988;10.318;2023-07-29T01:55:44;98291.59;;;18.18;100.00
28181;BME280;15464;50.988;10.318;2023-07-29T01:58:11;98274.94;;;18.23;100.00
28181;BME280;15464;50.988;10.318;2023-07-29T02:00:38;98271.41;;;18.22;100.00
28181;BME280;15464;50.988;10.318;2023-07-29T02:03:04;98262.53;;;18.22;100.00
28181;BME280;15464;50.988;10.318;2023-07-29T02:05:31;98274.09;;;18.22;100.00
28181;BME280;15464;50.988;10.318;2023-07-29T02:07:58;98270.41;;;18.23;100.00
28181;BME280;15464;50.988;10.318;2023-07-29T02:10:25;98276.16;;;18.20;100.00
28181;BME280;15464;50.988;10.318;2023-07-29T02:12:51;98287.53;;;18.22;100.00
28181;BME280;15464;50.988;10.318;2023-07-29T02:15:18;98276.16;;;18.20;100.00
28181;BME280;15464;50.988;10.318;2023-07-29T02:17:45;98269.75;;;18.21;100.00
28181;BME280;15464;50.988;10.318;2023-07-29T02:20:11;98278.66;;;18.22;100.00
28181;BME280;15464;50.988;10.318;2023-07-29T02:22:38;98276.16;;;18.20;100.00
28181;BME280;15464;50.988;10.318;2023-07-29T02:25:06;98268.50;;;18.17;100.00
28181;BME280;15464;50.988;10.318;2023-07-29T02:27:32;98268.50;;;18.17;100.00
28181;BME280;15464;50.988;10.318;2023-07-29T02:29:59;98253.66;;;18.21;100.00
28181;BME280;15464;50.988;10.318;2023-07-29T02:32:27;98259.03;;;18.21;100.00
28181;BME280;15464;50.988;10.318;2023-07-29T02:34:54;98250.81;;;18.29;100.00
28181;BME280;15464;50.988;10.318;2023-07-29T02:37:20;98250.19;;;18.27;100.00
28181;BME280;15464;50.988;10.318;2023-07-29T02:39:47;98242.97;;;18.28;100.00
28181;BME280;15464;50.988;10.318;2023-07-29T02:42:14;98244.13;;;18.19;100.00
28181;BME280;15464;50.988;10.318;2023-07-29T02:44:40;98246.44;;;18.22;100.00
28181;BME280;15464;50.988;10.318;2023-07-29T02:47:08;98252.44;;;18.24;100.00
28181;BME280;15464;50.988;10.318;2023-07-29T02:49:35;98244.16;;;18.25;100.00
28181;BME280;15464;50.988;10.318;2023-07-29T02:52:01;98238.81;;;18.25;100.00
28181;BME280;15464;50.988;10.318;2023-07-29T02:54:28;98240.47;;;18.26;100.00
28181;BME280;15464;50.988;10.318;2023-07-29T02:56:55;98246.25;;;18.23;100.00
28181;BME280;15464;50.988;10.318;2023-07-29T02:59:21;98239.25;;;18.29;100.00
28181;BME280;15464;50.988;10.318;2023-07-29T03:01:48;98234.72;;;18.29;100.00
28181;BME280;15464;50.988;10.318;2023-07-29T03:04:15;98240.28;;;18.28;100.00
28181;BME280;15464;50.988;10.318;2023-07-29T03:06:41;98240.47;;;18.26;100.00
28181;BME280;15464;50.988;10.318;2023-07-29T03:09:09;98242.91;;;18.21;100.00
28181;BME280;15464;50.988;10.318;2023-07-29T03:11:36;98237.53;;;18.21;100.00
28181;BME280;15464;50.988;10.318;2023-07-29T03:14:02;98237.53;;;18.21;100.00
28181;BME280;15464;50.988;10.318;2023-07-29T03:16:29;98229.63;;;18.13;100.00
28181;BME280;15464;50.988;10.318;2023-07-29T03:18:56;98232.13;;;18.14;100.00
28181;BME280;15464;50.988;10.318;2023-07-29T03:21:24;98228.19;;;18.10;100.00
28181;BME280;15464;50.988;10.318;2023-07-29T03:23:50;98226.72;;;18.08;100.00
28181;BME280;15464;50.988;10.318;2023-07-29T03:26:17;98220.50;;;18.07;100.00
28181;BME280;15464;50.988;10.318;2023-07-29T03:28:44;98223.38;;;18.06;100.00
28181;BME280;15464;50.988;10.318;2023-07-29T03:31:11;98217.59;;;18.02;100.00
28181;BME280;15464;50.988;10.318;2023-07-29T03:33:38;98211.41;;;18.02;100.00
28181;BME280;15464;50.988;10.318;2023-07-29T03:36:04;98201.25;;;17.97;100.00
28181;BME280;15464;50.988;10.318;2023-07-29T03:38:31;98196.88;;;17.90;100.00
28181;BME280;15464;50.988;10.318;2023-07-29T03:41:01;98200.38;;;17.90;100.00
28181;BME280;15464;50.988;10.318;2023-07-29T03:43:29;98192.28;;;17.84;100.00
28181;BME280;15464;50.988;10.318;2023-07-29T03:45:56;98196.38;;;17.80;100.00
28181;BME280;15464;50.988;10.318;2023-07-29T03:48:23;98198.44;;;17.78;100.00
28181;BME280;15464;50.988;10.318;2023-07-29T03:50:49;98207.50;;;17.77;100.00
28181;BME280;15464;50.988;10.318;2023-07-29T03:53:16;98207.50;;;17.77;100.00
28181;BME280;15464;50.988;10.318;2023-07-29T03:55:43;98198.44;;;17.78;100.00
28181;BME280;15464;50.988;10.318;2023-07-29T03:58:10;98186.50;;;17.80;100.00
28181;BME280;15464;50.988;10.318;2023-07-29T04:00:37;98192.28;;;17.84;100.00
28181;BME280;15464;50.988;10.318;2023-07-29T04:03:04;98196.81;;;17.83;100.00
28181;BME280;15464;50.988;10.318;2023-07-29T04:05:31;98191.88;;;17.87;100.00
28181;BME280;15464;50.988;10.318;2023-07-29T04:07:57;98188.81;;;17.90;100.00
28181;BME280;15464;50.988;10.318;2023-07-29T04:10:24;98190.72;;;17.96;100.00
28181;BME280;15464;50.988;10.318;2023-07-29T04:12:51;98186.00;;;17.98;100.00
28181;BME280;15464;50.988;10.318;2023-07-29T04:15:18;98191.97;;;18.00;100.00
28181;BME280;15464;50.988;10.318;2023-07-29T04:17:44;98191.97;;;18.00;100.00
28181;BME280;15464;50.988;10.318;2023-07-29T04:20:11;98196.31;;;18.01;100.00
28181;BME280;15464;50.988;10.318;2023-07-29T04:22:38;98200.03;;;18.00;100.00
28181;BME280;15464;50.988;10.318;2023-07-29T04:25:05;98195.72;;;17.99;100.00
28181;BME280;15464;50.988;10.318;2023-07-29T04:27:32;98185.59;;;18.01;100.00
28181;BME280;15464;50.988;10.318;2023-07-29T04:29:58;98178.81;;;18.05;100.00
28181;BME280;15464;50.988;10.318;2023-07-29T04:32:25;98189.13;;;18.08;100.00
28181;BME280;15464;50.988;10.318;2023-07-29T04:34:52;98183.97;;;18.06;100.00
28181;BME280;15464;50.988;10.318;2023-07-29T04:37:19;98174.94;;;18.14;100.00
28181;BME280;15464;50.988;10.318;2023-07-29T04:39:45;98176.00;;;18.20;100.00
28181;BME280;15464;50.988;10.318;2023-07-29T04:42:13;98165.44;;;18.18;100.00
28181;BME280;15464;50.988;10.318;2023-07-29T04:44:39;98166.53;;;18.24;100.00
28181;BME280;15464;50.988;10.318;2023-07-29T04:47:08;98171.47;;;18.20;100.00
28181;BME280;15464;50.988;10.318;2023-07-29T04:49:35;98169.00;;;18.25;100.00
28181;BME280;15464;50.988;10.318;2023-07-29T04:52:01;98164.50;;;18.32;100.00
28181;BME280;15464;50.988;10.318;2023-07-29T04:54:28;98155.03;;;18.36;100.00
28181;BME280;15464;50.988;10.318;2023-07-29T04:56:55;98156.09;;;18.42;100.00
28181;BME280;15464;50.988;10.318;2023-07-29T04:59:21;98168.28;;;18.44;100.00
28181;BME280;15464;50.988;10.318;2023-07-29T05:01:48;98173.47;;;18.52;100.00
28181;BME280;15464;50.988;10.318;2023-07-29T05:04:16;98170.41;;;18.56;100.00
28181;BME280;15464;50.988;10.318;2023-07-29T05:06:43;98169.59;;;18.62;100.00
28181;BME280;15464;50.988;10.318;2023-07-29T05:09:17;98163.00;;;18.58;100.00
28181;BME280;15464;50.988;10.318;2023-07-29T05:11:44;98152.47;;;18.63;100.00
28181;BME280;15464;50.988;10.318;2023-07-29T05:14:13;98146.91;;;18.71;100.00
28181;BME280;15464;50.988;10.318;2023-07-29T05:16:39;98133.50;;;18.71;100.00
28181;BME280;15464;50.988;10.318;2023-07-29T05:19:06;98143.22;;;18.72;100.00
28181;BME280;15464;50.988;10.318;2023-07-29T05:21:33;98129.59;;;18.80;100.00
28181;BME280;15464;50.988;10.318;2023-07-29T05:24:00;98134.97;;;18.80;100.00
28181;BME280;15464;50.988;10.318;2023-07-29T05:26:27;98131.66;;;18.78;100.00
28181;BME280;15464;50.988;10.318;2023-07-29T05:28:53;98133.53;;;18.84;100.00
28181;BME280;15464;50.988;10.318;2023-07-29T05:31:20;98142.44;;;18.91;100.00
28181;BME280;15464;50.988;10.318;2023-07-29T05:33:46;98139.56;;;18.92;100.00
28181;BME280;15464;50.988;10.318;2023-07-29T05:36:14;98149.88;;;18.96;100.00
28181;BME280;15464;50.988;10.318;2023-07-29T05:38:41;98148.88;;;19.03;100.00
28181;BME280;15464;50.988;10.318;2023-07-29T05:41:07;98155.25;;;18.96;100.00
28181;BME280;15464;50.988;10.318;2023-07-29T05:43:34;98158.59;;;19.04;100.00
28181;BME280;15464;50.988;10.318;2023-07-29T05:46:01;98163.16;;;19.10;100.00
28181;BME280;15464;50.988;10.318;2023-07-29T05:48:27;98164.19;;;19.16;100.00
28181;BME280;15464;50.988;10.318;2023-07-29T05:50:54;98166.25;;;19.14;100.00
28181;BME280;15464;50.988;10.318;2023-07-29T05:53:21;98161.50;;;19.09;100.00
28181;BME280;15464;50.988;10.318;2023-07-29T05:55:47;98165.22;;;19.15;100.00
28181;BME280;15464;50.988;10.318;2023-07-29T05:58:14;98165.00;;;19.10;100.00
28181;BME280;15464;50.988;10.318;2023-07-29T06:00:41;98168.91;;;19.07;100.00
28181;BME280;15464;50.988;10.318;2023-07-29T06:03:08;98176.78;;;19.02;100.00
28181;BME280;15464;50.988;10.318;2023-07-29T06:05:35;98163.97;;;19.04;100.00
28181;BME280;15464;50.988;10.318;2023-07-29T06:08:02;98171.41;;;19.02;100.00
28181;BME280;15464;50.988;10.318;2023-07-29T06:10:29;98168.53;;;19.10;100.00
28181;BME280;15464;50.988;10.318;2023-07-29T06:12:55;98167.28;;;19.13;100.00
28181;BME280;15464;50.988;10.318;2023-07-29T06:15:22;98173.47;;;19.13;100.00
28181;BME280;15464;50.988;10.318;2023-07-29T06:17:49;98168.94;;;19.20;100.00
28181;BME280;15464;50.988;10.318;2023-07-29T06:20:16;98165.22;;;19.15;100.00
28181;BME280;15464;50.988;10.318;2023-07-29T06:22:43;98171.00;;;19.25;100.00
28181;BME280;15464;50.988;10.318;2023-07-29T06:25:10;98168.56;;;19.30;100.00
28181;BME280;15464;50.988;10.318;2023-07-29T06:27:36;98162.13;;;19.31;100.00
28181;BME280;15464;50.988;10.318;2023-07-29T06:30:03;98167.31;;;19.32;100.00
28181;BME280;15464;50.988;10.318;2023-07-29T06:32:31;98164.44;;;19.41;100.00
28181;BME280;15464;50.988;10.318;2023-07-29T06:34:57;98166.69;;;19.37;100.00
28181;BME280;15464;50.988;10.318;2023-07-29T06:37:24;98169.59;;;19.42;100.00
28181;BME280;15464;50.988;10.318;2023-07-29T06:39:50;98173.56;;;19.53;100.00
28181;BME280;15464;50.988;10.318;2023-07-29T06:42:17;98167.75;;;19.56;100.00
28181;BME280;15464;50.988;10.318;2023-07-29T06:44:44;98164.25;;;19.62;100.00
28181;BME280;15464;50.988;10.318;2023-07-29T06:47:12;98161.78;;;19.67;100.00
28181;BME280;15464;50.988;10.318;2023-07-29T06:49:39;98167.34;;;19.59;100.00
28181;BME280;15464;50.988;10.318;2023-07-29T06:52:05;98165.25;;;19.74;100.00
28181;BME280;15464;50.988;10.318;2023-07-29T06:54:32;98158.84;;;19.82;100.00
28181;BME280;15464;50.988;10.318;2023-07-29T06:56:59;98164.66;;;19.98;100.00
28181;BME280;15464;50.988;10.318;2023-07-29T06:59:25;98160.88;;;20.12;100.00
28181;BME280;15464;50.988;10.318;2023-07-29T07:01:52;98156.47;;;20.25;100.00
28181;BME280;15464;50.988;10.318;2023-07-29T07:04:19;98146.97;;;20.35;99.75
28181;BME280;15464;50.988;10.318;2023-07-29T07:06:46;98158.13;;;20.45;99.86
28181;BME280;15464;50.988;10.318;2023-07-29T07:09:12;98151.47;;;20.48;99.23
28181;BME280;15464;50.988;10.318;2023-07-29T07:11:39;98162.28;;;20.41;96.86
28181;BME280;15464;50.988;10.318;2023-07-29T07:14:06;98169.34;;;20.36;97.97
28181;BME280;15464;50.988;10.318;2023-07-29T07:16:32;98168.25;;;20.43;98.33
28181;BME280;15464;50.988;10.318;2023-07-29T07:18:59;98176.59;;;20.42;98.88
28181;BME280;15464;50.988;10.318;2023-07-29T07:21:26;98168.84;;;20.59;98.10
28181;BME280;15464;50.988;10.318;2023-07-29T07:23:53;98169.69;;;20.52;96.69
28181;BME280;15464;50.988;10.318;2023-07-29T07:26:19;98168.84;;;20.59;96.80
28181;BME280;15464;50.988;10.318;2023-07-29T07:28:46;98174.63;;;20.62;96.99
28181;BME280;15464;50.988;10.318;2023-07-29T07:31:13;98165.94;;;20.60;96.05
28181;BME280;15464;50.988;10.318;2023-07-29T07:33:39;98164.97;;;20.48;97.03
28181;BME280;15464;50.988;10.318;2023-07-29T07:36:06;98169.03;;;20.64;96.43
28181;BME280;15464;50.988;10.318;2023-07-29T07:38:33;98161.19;;;20.49;96.80
28181;BME280;15464;50.988;10.318;2023-07-29T07:40:59;98167.25;;;20.38;96.28
28181;BME280;15464;50.988;10.318;2023-07-29T07:43:26;98163.94;;;20.42;96.03
28181;BME280;15464;50.988;10.318;2023-07-29T07:46:00;98162.09;;;20.30;96.64
28181;BME280;15464;50.988;10.318;2023-07-29T07:48:27;98150.25;;;20.31;97.14
28181;BME280;15464;50.988;10.318;2023-07-29T07:50:54;98154.78;;;20.43;97.75
28181;BME280;15464;50.988;10.318;2023-07-29T07:53:21;98162.66;;;20.51;96.90
28181;BME280;15464;50.988;10.318;2023-07-29T07:55:48;98162.97;;;20.68;96.88
28181;BME280;15464;50.988;10.318;2023-07-29T07:58:14;98162.94;;;20.75;96.64
28181;BME280;15464;50.988;10.318;2023-07-29T08:00:41;98148.06;;;20.72;95.91
28181;BME280;15464;50.988;10.318;2023-07-29T08:03:08;98160.09;;;20.63;96.07
28181;BME280;15464;50.988;10.318;2023-07-29T08:05:34;98156.25;;;20.46;96.99
28181;BME280;15464;50.988;10.318;2023-07-29T08:08:01;98161.81;;;20.51;96.76
28181;BME280;15464;50.988;10.318;2023-07-29T08:10:28;98161.16;;;20.56;96.34
28181;BME280;15464;50.988;10.318;2023-07-29T08:12:54;98160.09;;;20.63;96.90
28181;BME280;15464;50.988;10.318;2023-07-29T08:15:21;98156.38;;;20.64;96.67
28181;BME280;15464;50.988;10.318;2023-07-29T08:17:48;98158.91;;;20.59;96.26
28181;BME280;15464;50.988;10.318;2023-07-29T08:20:15;98152.19;;;20.68;95.99
28181;BME280;15464;50.988;10.318;2023-07-29T08:22:41;98158.44;;;20.62;96.31
28181;BME280;15464;50.988;10.318;2023-07-29T08:25:08;98152.81;;;20.70;96.04
28181;BME280;15464;50.988;10.318;2023-07-29T08:27:35;98149.09;;;20.71;96.47
28181;BME280;15464;50.988;10.318;2023-07-29T08:30:01;98155.94;;;20.74;95.94
28181;BME280;15464;50.988;10.318;2023-07-29T08:32:28;98148.88;;;20.73;95.79
28181;BME280;15464;50.988;10.318;2023-07-29T08:34:55;98144.66;;;20.83;95.81
28181;BME280;15464;50.988;10.318;2023-07-29T08:37:22;98150.03;;;20.90;96.51
28181;BME280;15464;50.988;10.318;2023-07-29T08:39:49;98150.09;;;20.77;96.11
28181;BME280;15464;50.988;10.318;2023-07-29T08:42:16;98147.19;;;20.78;95.59
28181;BME280;15464;50.988;10.318;2023-07-29T08:44:49;98155.41;;;20.90;95.85
28181;BME280;15464;50.988;10.318;2023-07-29T08:47:16;98155.81;;;20.93;96.23
28181;BME280;15464;50.988;10.318;2023-07-29T08:49:45;98162.09;;;20.81;95.57
28181;BME280;15464;50.988;10.318;2023-07-29T08:52:13;98163.44;;;20.65;93.19
28181;BME280;15464;50.988;10.318;2023-07-29T08:54:41;98164.66;;;20.63;92.71
28181;BME280;15464;50.988;10.318;2023-07-29T08:57:08;98165.56;;;20.50;93.63
28181;BME280;15464;50.988;10.318;2023-07-29T08:59:35;98162.66;;;20.51;93.87
28181;BME280;15464;50.988;10.318;2023-07-29T09:02:02;98161.00;;;20.44;94.94
28181;BME280;15464;50.988;10.318;2023-07-29T09:04:28;98162.00;;;20.56;95.85
28181;BME280;15464;50.988;10.318;2023-07-29T09:06:56;98153.97;;;20.43;96.14
28181;BME280;15464;50.988;10.318;2023-07-29T09:09:22;98156.88;;;20.48;96.76
28181;BME280;15464;50.988;10.318;2023-07-29T09:11:50;98154.81;;;20.37;96.36
28181;BME280;15464;50.988;10.318;2023-07-29T09:14:17;98156.69;;;20.36;98.09
28181;BME280;15464;50.988;10.318;2023-07-29T09:16:43;98172.63;;;20.25;100.00
28181;BME280;15464;50.988;10.318;2023-07-29T09:19:10;98165.81;;;20.29;100.00
28181;BME280;15464;50.988;10.318;2023-07-29T09:21:41;98174.13;;;20.21;100.00
28181;BME280;15464;50.988;10.318;2023-07-29T09:24:08;98165.66;;;20.10;100.00
28181;BME280;15464;50.988;10.318;2023-07-29T09:26:35;98167.91;;;20.20;100.00
28181;BME280;15464;50.988;10.318;2023-07-29T09:29:03;98171.22;;;20.16;100.00
28181;BME280;15464;50.988;10.318;2023-07-29T09:31:30;98168.13;;;20.05;100.00
28181;BME280;15464;50.988;10.318;2023-07-29T09:34:02;98165.25;;;20.00;100.00
28181;BME280;15464;50.988;10.318;2023-07-29T09:36:31;98170.59;;;20.20;100.00
28181;BME280;15464;50.988;10.318;2023-07-29T09:38:58;98166.22;;;20.26;100.00
28181;BME280;15464;50.988;10.318;2023-07-29T09:41:27;98172.44;;;20.20;100.00
28181;BME280;15464;50.988;10.318;2023-07-29T09:44:02;98174.31;;;20.26;100.00
28181;BME280;15464;50.988;10.318;2023-07-29T09:46:34;98172.22;;;20.28;100.00
28181;BME280;15464;50.988;10.318;2023-07-29T09:49:03;98161.03;;;20.24;100.00
28181;BME280;15464;50.988;10.318;2023-07-29T09:51:31;98165.19;;;20.27;100.00
28181;BME280;15464;50.988;10.318;2023-07-29T09:54:02;98169.75;;;20.39;100.00
28181;BME280;15464;50.988;10.318;2023-07-29T09:56:29;98166.38;;;20.50;100.00
28181;BME280;15464;50.988;10.318;2023-07-29T09:58:56;98150.25;;;20.37;100.00
28181;BME280;15464;50.988;10.318;2023-07-29T10:01:24;98159.38;;;20.36;100.00
28181;BME280;15464;50.988;10.318;2023-07-29T10:03:51;98165.56;;;20.50;100.00
28181;BME280;15464;50.988;10.318;2023-07-29T10:06:19;98156.81;;;20.61;100.00
28181;BME280;15464;50.988;10.318;2023-07-29T10:08:47;98158.41;;;20.75;99.94
28181;BME280;15464;50.988;10.318;2023-07-29T10:11:16;98146.44;;;21.03;98.11
28181;BME280;15464;50.988;10.318;2023-07-29T10:13:45;98143.13;;;21.32;96.49
28181;BME280;15464;50.988;10.318;2023-07-29T10:16:32;98157.25;;;21.34;94.47
28181;BME280;15464;50.988;10.318;2023-07-29T10:19:01;98143.13;;;21.32;92.29
28181;BME280;15464;50.988;10.318;2023-07-29T10:21:29;98138.38;;;21.59;94.36
28181;BME280;15464;50.988;10.318;2023-07-29T10:23:58;98132.81;;;21.54;91.58
28181;BME280;15464;50.988;10.318;2023-07-29T10:26:28;98130.00;;;21.67;91.01
28181;BME280;15464;50.988;10.318;2023-07-29T10:28:59;98133.19;;;21.57;89.61
28181;BME280;15464;50.988;10.318;2023-07-29T10:31:32;98129.19;;;21.66;89.57
28181;BME280;15464;50.988;10.318;2023-07-29T10:33:59;98129.97;;;21.92;89.97
28181;BME280;15464;50.988;10.318;2023-07-29T10:36:27;98129.31;;;21.96;83.51
28181;BME280;15464;50.988;10.318;2023-07-29T10:38:54;98125.66;;;22.27;82.97
28181;BME280;15464;50.988;10.318;2023-07-29T10:41:21;98128.28;;;22.52;83.89
28181;BME280;15464;50.988;10.318;2023-07-29T10:43:48;98130.06;;;22.58;82.23
28181;BME280;15464;50.988;10.318;2023-07-29T10:46:15;98131.63;;;22.84;81.58
28181;BME280;15464;50.988;10.318;2023-07-29T10:48:54;98131.66;;;22.47;75.44
28181;BME280;15464;50.988;10.318;2023-07-29T10:51:28;98124.97;;;22.50;79.11
28181;BME280;15464;50.988;10.318;2023-07-29T10:54:02;98131.06;;;22.45;79.42
28181;BME280;15464;50.988;10.318;2023-07-29T10:56:33;98123.31;;;22.49;79.51
28181;BME280;15464;50.988;10.318;2023-07-29T11:01:59;98114.94;;;22.69;78.36
28181;BME280;15464;50.988;10.318;2023-07-29T11:04:30;98121.66;;;22.84;80.10
28181;BME280;15464;50.988;10.318;2023-07-29T11:15:25;98109.69;;;22.74;74.68
28181;BME280;15464;50.988;10.318;2023-07-29T11:20:19;98104.06;;;23.05;72.76
28181;BME280;15464;50.988;10.318;2023-07-29T11:22:46;98109.16;;;22.83;70.42
28181;BME280;15464;50.988;10.318;2023-07-29T11:25:15;98108.63;;;23.46;68.94
28181;BME280;15464;50.988;10.318;2023-07-29T11:27:42;98102.31;;;23.52;67.79
28181;BME280;15464;50.988;10.318;2023-07-29T11:30:11;98102.09;;;23.24;66.15
28181;BME280;15464;50.988;10.318;2023-07-29T11:32:41;98110.06;;;23.07;68.58
28181;BME280;15464;50.988;10.318;2023-07-29T11:35:09;98104.66;;;23.07;69.11
28181;BME280;15464;50.988;10.318;2023-07-29T11:37:38;98099.59;;;23.52;67.91
28181;BME280;15464;50.988;10.318;2023-07-29T11:40:05;98092.78;;;23.73;68.90
28181;BME280;15464;50.988;10.318;2023-07-29T11:42:33;98086.50;;;24.19;67.31
28181;BME280;15464;50.988;10.318;2023-07-29T11:45:04;98085.22;;;24.22;66.98
28181;BME280;15464;50.988;10.318;2023-07-29T11:47:33;98089.94;;;23.91;67.74
28181;BME280;15464;50.988;10.318;2023-07-29T11:50:08;98078.16;;;23.97;65.16
28181;BME280;15464;50.988;10.318;2023-07-29T11:52:45;98075.56;;;24.54;63.92
28181;BME280;15464;50.988;10.318;2023-07-29T11:55:14;98075.00;;;24.52;65.19
28181;BME280;15464;50.988;10.318;2023-07-29T11:57:42;98074.84;;;24.19;64.75
28181;BME280;15464;50.988;10.318;2023-07-29T12:00:10;98075.75;;;24.36;63.50
28181;BME280;15464;50.988;10.318;2023-07-29T12:02:40;98070.38;;;25.43;63.19
28181;BME280;15464;50.988;10.318;2023-07-29T12:05:09;98082.72;;;25.34;61.55
28181;BME280;15464;50.988;10.318;2023-07-29T12:07:38;98076.22;;;25.18;61.04
28181;BME280;15464;50.988;10.318;2023-07-29T12:10:06;98069.47;;;25.37;59.49
28181;BME280;15464;50.988;10.318;2023-07-29T12:12:33;98071.00;;;26.00;59.83
28181;BME280;15464;50.988;10.318;2023-07-29T12:14:59;98066.13;;;25.63;61.35
28181;BME280;15464;50.988;10.318;2023-07-29T12:17:27;98079.19;;;25.33;59.68
28181;BME280;15464;50.988;10.318;2023-07-29T12:19:55;98074.78;;;24.70;56.06
28181;BME280;15464;50.988;10.318;2023-07-29T12:22:21;98076.78;;;24.46;59.20
28181;BME280;15464;50.988;10.318;2023-07-29T12:24:51;98079.16;;;24.71;61.20
28181;BME280;15464;50.988;10.318;2023-07-29T12:27:18;98075.66;;;24.59;62.12
28181;BME280;15464;50.988;10.318;2023-07-29T12:29:44;98065.97;;;24.63;62.21
28181;BME280;15464;50.988;10.318;2023-07-29T12:32:13;98068.88;;;24.45;62.46
28181;BME280;15464;50.988;10.318;2023-07-29T12:34:40;98076.72;;;24.30;63.21
28181;BME280;15464;50.988;10.318;2023-07-29T12:37:07;98079.44;;;24.06;62.69
28181;BME280;15464;50.988;10.318;2023-07-29T12:39:39;98075.88;;;24.06;63.60
28181;BME280;15464;50.988;10.318;2023-07-29T12:42:06;98077.22;;;23.68;63.55
28181;BME280;15464;50.988;10.318;2023-07-29T12:44:34;98085.34;;;23.57;64.85
28181;BME280;15464;50.988;10.318;2023-07-29T12:47:02;98109.66;;;23.33;65.53
28181;BME280;15464;50.988;10.318;2023-07-29T12:49:30;98105.78;;;23.41;66.80
28181;BME280;15464;50.988;10.318;2023-07-29T12:51:58;98119.03;;;23.19;69.51
28181;BME280;15464;50.988;10.318;2023-07-29T12:54:25;98130.91;;;22.22;77.38
28181;BME280;15464;50.988;10.318;2023-07-29T12:56:52;98156.34;;;21.90;82.60
28181;BME280;15464;50.988;10.318;2023-07-29T12:59:18;98198.22;;;21.49;85.08
28181;BME280;15464;50.988;10.318;2023-07-29T13:01:45;98223.59;;;20.52;90.62
28181;BME280;15464;50.988;10.318;2023-07-29T13:04:12;98184.88;;;20.40;93.63
28181;BME280;15464;50.988;10.318;2023-07-29T13:06:38;98190.91;;;20.09;95.17